createdAt,value
2019-04-26T00:00:49.691Z,1.00
2019-04-26T00:03:25.881Z,1.20
2019-04-26T00:05:54.721Z,1.30
2019-04-26T00:08:23.177Z,1.20
2019-04-26T00:10:53.375Z,1.10
2019-04-26T00:13:38.623Z,1.60
2019-04-26T00:16:12.662Z,1.10
2019-04-26T00:18:41.372Z,1.40
2019-04-26T00:21:10.602Z,1.15
2019-04-26T00:23:40.333Z,1.15
2019-04-26T00:26:09.344Z,1.10
2019-04-26T00:28:37.891Z,1.02
2019-04-26T00:31:06.425Z,1.00
2019-04-26T00:33:34.988Z,1.30
2019-04-26T00:36:03.488Z,1.07
2019-04-26T00:38:32.023Z,1.00
2019-04-26T00:41:00.816Z,1.27
2019-04-26T00:43:29.736Z,0.90
2019-04-26T00:46:01.486Z,0.98
2019-04-26T00:48:31.901Z,1.10
2019-04-26T00:51:03.007Z,0.90
2019-04-26T00:53:33.732Z,1.05
2019-04-26T00:56:03.779Z,1.20
2019-04-26T00:58:33.818Z,0.90
2019-04-26T01:01:02.413Z,1.20
2019-04-26T01:03:32.990Z,1.27
2019-04-26T01:06:03.148Z,1.30
2019-04-26T01:08:31.616Z,1.10
2019-04-26T01:11:00.114Z,1.20
2019-04-26T01:13:28.645Z,1.10
2019-04-26T01:15:57.100Z,1.20
2019-04-26T01:18:26.409Z,1.00
2019-04-26T01:20:58.007Z,1.00
2019-04-26T01:23:30.009Z,1.10
2019-04-26T01:26:10.875Z,1.00
2019-04-26T01:28:45.243Z,0.88
2019-04-26T01:31:14.773Z,1.12
2019-04-26T01:33:44.567Z,1.00
2019-04-26T01:36:13.790Z,1.05
2019-04-26T01:38:45.239Z,1.10
2019-04-26T01:41:18.407Z,1.27
2019-04-26T01:43:53.079Z,0.90
2019-04-26T01:46:29.073Z,1.22
2019-04-26T01:49:06.153Z,1.15
2019-04-26T01:51:49.624Z,1.00
2019-04-26T01:54:22.492Z,1.50
2019-04-26T01:56:54.346Z,1.30
2019-04-26T01:59:23.657Z,1.27
2019-04-26T02:01:53.967Z,1.27
2019-04-26T02:04:24.051Z,1.30
2019-04-26T02:06:52.657Z,1.22
2019-04-26T02:09:22.880Z,1.40
2019-04-26T02:11:51.527Z,1.30
2019-04-26T02:14:20.201Z,1.40
2019-04-26T02:16:48.773Z,1.47
2019-04-26T02:19:17.376Z,1.25
2019-04-26T02:22:05.354Z,1.30
2019-04-26T02:24:35.527Z,1.62
2019-04-26T02:27:05.701Z,1.50
2019-04-26T02:29:34.738Z,1.45
2019-04-26T02:32:06.269Z,1.87
2019-04-26T02:34:38.074Z,1.45
2019-04-26T02:37:09.656Z,1.57
2019-04-26T02:39:40.594Z,1.60
2019-04-26T02:42:21.048Z,1.80
2019-04-26T02:45:10.637Z,1.85
2019-04-26T02:47:41.306Z,1.87
2019-04-26T02:50:23.270Z,1.50
2019-04-26T02:52:57.472Z,2.00
2019-04-26T02:56:00.615Z,1.92
2019-04-26T02:58:35.159Z,1.98
2019-04-26T03:01:02.793Z,2.02
2019-04-26T03:03:32.402Z,1.65
2019-04-26T03:06:02.057Z,2.22
2019-04-26T03:08:35.295Z,1.70
2019-04-26T03:11:09.732Z,2.00
2019-04-26T03:13:45.502Z,2.37
2019-04-26T03:16:37.441Z,2.20
2019-04-26T03:21:43.667Z,2.08
2019-04-26T03:24:26.749Z,2.47
2019-04-26T03:27:13.038Z,2.30
2019-04-26T03:29:47.375Z,1.87
2019-04-26T03:32:24.687Z,2.08
2019-04-26T03:35:18.637Z,1.82
2019-04-26T03:37:57.334Z,2.20
2019-04-26T03:40:40.361Z,2.00
2019-04-26T03:43:17.858Z,3.10
2019-04-26T03:46:07.700Z,2.27
2019-04-26T03:48:58.990Z,2.52
2019-04-26T03:51:43.105Z,2.58
2019-04-26T03:54:21.556Z,2.35
2019-04-26T03:56:57.630Z,2.72
2019-04-26T03:59:35.198Z,3.05
2019-04-26T04:02:14.438Z,2.50
2019-04-26T04:04:52.632Z,2.55
2019-04-26T04:07:36.029Z,2.60
2019-04-26T04:09:58.927Z,2.75
2019-04-26T04:12:47.776Z,2.35
2019-04-26T04:15:33.836Z,2.27
2019-04-26T04:18:10.136Z,2.60
2019-04-26T04:20:48.376Z,2.45
2019-04-26T04:23:43.530Z,2.30
2019-04-26T04:26:15.449Z,2.60
2019-04-26T04:29:20.698Z,2.60
2019-04-26T04:31:54.827Z,2.40
2019-04-26T04:34:35.562Z,2.02
2019-04-26T04:37:06.725Z,2.30
2019-04-26T04:39:54.487Z,2.08
2019-04-26T04:42:36.445Z,2.45
2019-04-26T04:45:12.248Z,2.40
2019-04-26T04:47:57.240Z,2.58
2019-04-26T04:50:33.129Z,2.08
2019-04-26T04:53:07.308Z,2.22
2019-04-26T04:55:59.237Z,2.33
2019-04-26T04:58:53.217Z,2.60
2019-04-26T05:01:35.266Z,2.70
2019-04-26T05:04:11.172Z,2.75
2019-04-26T05:06:51.209Z,2.27
2019-04-26T05:09:28.108Z,2.60
2019-04-26T05:12:05.332Z,2.22
2019-04-26T05:15:08.163Z,2.70
2019-04-26T05:17:46.189Z,2.52
2019-04-26T05:20:30.137Z,2.58
2019-04-26T05:23:30.581Z,2.80
2019-04-26T05:26:06.410Z,2.67
2019-04-26T05:28:49.382Z,2.83
2019-04-26T05:31:35.655Z,2.70
2019-04-26T05:34:14.996Z,3.20
2019-04-26T05:37:04.451Z,3.12
2019-04-26T05:39:51.230Z,2.70
2019-04-26T05:42:49.882Z,2.25
2019-04-26T05:45:40.637Z,2.67
2019-04-26T05:48:41.293Z,2.60
2019-04-26T05:51:28.961Z,2.37
2019-04-26T05:54:07.928Z,2.20
2019-04-26T05:56:52.703Z,2.50
2019-04-26T05:59:53.495Z,1.98
2019-04-26T06:02:33.531Z,2.27
2019-04-26T06:05:20.820Z,2.37
2019-04-26T06:08:08.397Z,2.47
2019-04-26T06:10:41.844Z,1.95
2019-04-26T06:13:48.308Z,2.20
2019-04-26T06:16:36.237Z,2.40
2019-04-26T06:19:43.773Z,1.95
2019-04-26T06:22:32.127Z,2.17
2019-04-26T06:25:23.460Z,2.05
2019-04-26T06:27:56.690Z,2.10
2019-04-26T06:30:28.243Z,2.02
2019-04-26T06:33:03.170Z,2.00
2019-04-26T06:35:31.003Z,1.82
2019-04-26T06:38:43.518Z,2.20
2019-04-26T06:41:30.030Z,1.85
2019-04-26T06:44:05.687Z,1.85
2019-04-26T06:47:01.840Z,2.02
2019-04-26T06:49:58.392Z,2.02
2019-04-26T06:52:29.917Z,2.08
2019-04-26T06:55:11.412Z,1.80
2019-04-26T06:57:50.296Z,2.00
2019-04-26T07:00:25.410Z,1.95
2019-04-26T07:03:20.528Z,1.85
2019-04-26T07:05:52.069Z,2.00
2019-04-26T07:08:35.641Z,1.80
2019-04-26T07:11:20.259Z,1.82
2019-04-26T07:14:08.539Z,2.05
2019-04-26T07:16:46.138Z,1.90
2019-04-26T07:19:23.657Z,2.17
2019-04-26T07:22:34.862Z,2.30
2019-04-26T07:25:17.809Z,2.60
2019-04-26T07:28:06.358Z,2.27
2019-04-26T07:30:55.332Z,2.42
2019-04-26T07:33:32.380Z,2.20
2019-04-26T07:36:07.572Z,2.17
2019-04-26T07:38:53.079Z,2.10
2019-04-26T07:42:01.760Z,2.15
2019-04-26T07:45:10.308Z,1.98
2019-04-26T07:48:16.674Z,2.22
2019-04-26T07:50:54.279Z,2.37
2019-04-26T07:54:00.069Z,2.22
2019-04-26T07:56:34.453Z,2.25
2019-04-26T07:59:24.412Z,2.20
2019-04-26T08:02:25.740Z,2.05
2019-04-26T08:05:07.493Z,1.85
2019-04-26T08:07:44.939Z,2.40
2019-04-26T08:10:18.818Z,2.20
2019-04-26T08:12:50.368Z,1.90
2019-04-26T08:15:39.519Z,2.20
2019-04-26T08:18:15.449Z,1.75
2019-04-26T08:20:54.220Z,2.25
2019-04-26T08:23:39.203Z,2.00
2019-04-26T08:25:59.033Z,1.80
2019-04-26T08:28:30.633Z,1.90
2019-04-26T08:31:00.990Z,1.87
2019-04-26T08:33:41.025Z,1.95
2019-04-26T08:36:12.738Z,1.77
2019-04-26T08:38:43.072Z,1.60
2019-04-26T08:41:11.681Z,1.55
2019-04-26T08:43:48.725Z,1.65
2019-04-26T08:46:32.345Z,1.75
2019-04-26T08:49:06.443Z,1.87
2019-04-26T08:51:37.978Z,1.60
2019-04-26T08:54:09.522Z,1.87
2019-04-26T08:56:44.082Z,1.60
2019-04-26T08:59:27.795Z,1.85
2019-04-26T09:02:14.971Z,2.40
2019-04-26T09:04:53.506Z,1.60
2019-04-26T09:07:26.732Z,2.12
2019-04-26T09:10:01.150Z,2.02
2019-04-26T09:12:29.939Z,1.55
2019-04-26T09:15:01.473Z,2.17
2019-04-26T09:17:32.239Z,1.97
2019-04-26T09:20:07.032Z,1.87
2019-04-26T09:22:42.428Z,2.00
2019-04-26T09:25:12.686Z,2.50
2019-04-26T09:27:42.888Z,1.90
2019-04-26T09:30:33.795Z,2.17
2019-04-26T09:33:02.028Z,2.30
2019-04-26T09:35:31.648Z,2.10
2019-04-26T09:38:00.120Z,2.52
2019-04-26T09:40:28.624Z,2.00
2019-04-26T09:42:59.694Z,2.27
2019-04-26T09:45:48.070Z,2.35
2019-04-26T09:48:27.092Z,2.20
2019-04-26T09:50:57.187Z,2.37
2019-04-26T09:53:25.637Z,2.58
2019-04-26T09:55:54.104Z,2.90
2019-04-26T09:58:22.560Z,2.80
2019-04-26T10:00:51.085Z,3.05
2019-04-26T10:03:19.544Z,3.62
2019-04-26T10:05:48.052Z,3.80
2019-04-26T10:08:16.508Z,3.40
2019-04-26T10:10:44.990Z,3.10
2019-04-26T10:13:15.282Z,3.22
2019-04-26T10:15:45.425Z,3.20
2019-04-26T10:18:15.538Z,3.02
2019-04-26T10:20:44.003Z,3.20
2019-04-26T10:23:12.449Z,2.72
2019-04-26T10:25:40.909Z,3.08
2019-04-26T10:28:11.813Z,2.50
2019-04-26T10:30:42.290Z,2.83
2019-04-26T10:33:09.817Z,2.92
2019-04-26T10:35:38.261Z,2.60
2019-04-26T10:38:06.715Z,3.27
2019-04-26T10:40:35.931Z,3.10
2019-04-26T10:43:05.763Z,3.35
2019-04-26T10:45:35.795Z,2.60
2019-04-26T10:48:05.337Z,2.72
2019-04-26T10:50:34.461Z,2.52
2019-04-26T10:53:16.654Z,2.55
2019-04-26T10:55:50.161Z,2.35
2019-04-26T10:58:18.791Z,2.35
2019-04-26T11:00:54.492Z,2.83
2019-04-26T11:03:22.949Z,1.95
2019-04-26T11:05:53.685Z,1.77
2019-04-26T11:08:21.984Z,1.70
2019-04-26T11:10:52.393Z,1.65
2019-04-26T11:13:20.904Z,1.52
2019-04-26T11:15:49.935Z,1.20
2019-04-26T11:18:19.854Z,1.22
2019-04-26T11:20:48.716Z,1.47
2019-04-26T11:23:17.321Z,1.15
2019-04-26T11:25:45.785Z,1.32
2019-04-26T11:28:17.330Z,1.25
2019-04-26T11:30:47.915Z,1.20
2019-04-26T11:33:14.685Z,1.00
2019-04-26T11:35:43.150Z,1.12
2019-04-26T11:38:11.726Z,1.20
2019-04-26T11:40:40.274Z,1.17
2019-04-26T11:43:08.757Z,1.10
2019-04-26T11:45:37.234Z,1.10
2019-04-26T11:48:05.708Z,1.10
2019-04-26T11:50:34.225Z,3.50
2019-04-26T11:53:06.294Z,1.12
2019-04-26T11:55:32.859Z,1.15
2019-04-26T11:58:01.392Z,1.07
2019-04-26T12:00:34.269Z,0.95
2019-04-26T12:03:02.727Z,0.70
2019-04-26T12:05:35.864Z,0.80
2019-04-26T12:08:11.663Z,1.00
2019-04-26T12:10:40.556Z,0.93
2019-04-26T12:13:10.321Z,0.90
2019-04-26T12:15:43.210Z,1.57
2019-04-26T12:18:09.700Z,0.80
2019-04-26T12:20:39.186Z,0.85
2019-04-26T12:23:07.660Z,0.90
2019-04-26T12:25:38.862Z,0.80
2019-04-26T12:28:07.387Z,1.00
2019-04-26T12:30:36.080Z,0.88
2019-04-26T12:33:04.628Z,0.80
2019-04-26T12:35:33.088Z,0.70
2019-04-26T12:38:01.612Z,0.57
2019-04-26T12:40:30.056Z,0.60
2019-04-26T12:42:58.504Z,0.60
2019-04-26T12:45:37.790Z,0.80
2019-04-26T12:48:08.171Z,0.70
2019-04-26T12:50:37.837Z,0.60
2019-04-26T12:53:06.505Z,0.68
2019-04-26T12:55:34.944Z,0.80
2019-04-26T12:58:03.380Z,0.70
2019-04-26T13:00:33.165Z,0.80
2019-04-26T13:03:03.881Z,0.70
2019-04-26T13:05:32.344Z,0.78
2019-04-26T13:08:00.820Z,0.62
2019-04-26T13:10:45.704Z,0.82
2019-04-26T13:13:15.821Z,0.88
2019-04-26T13:16:04.810Z,0.90
2019-04-26T13:18:33.349Z,0.80
2019-04-26T13:21:02.927Z,0.80
2019-04-26T13:23:32.122Z,0.82
2019-04-26T13:26:01.502Z,0.85
2019-04-26T13:28:30.311Z,0.90
2019-04-26T13:31:01.905Z,0.90
2019-04-26T13:33:29.221Z,0.80
2019-04-26T13:36:04.898Z,0.80
2019-04-26T13:38:27.942Z,1.02
2019-04-26T13:40:59.724Z,1.00
2019-04-26T13:43:28.455Z,0.68
2019-04-26T13:45:58.489Z,0.65
2019-04-26T13:48:34.648Z,0.60
2019-04-26T13:51:19.862Z,0.62
2019-04-26T13:53:48.336Z,0.60
2019-04-26T13:56:17.056Z,0.75
2019-04-26T13:58:45.589Z,0.60
2019-04-26T14:01:14.598Z,0.60
2019-04-26T14:03:44.398Z,0.60
2019-04-26T14:06:12.865Z,0.70
2019-04-26T14:08:41.376Z,0.68
2019-04-26T14:11:09.817Z,0.90
2019-04-26T14:13:38.292Z,0.68
2019-04-26T14:16:07.492Z,0.78
2019-04-26T14:18:39.156Z,0.60
2019-04-26T14:21:06.209Z,0.80
2019-04-26T14:23:45.333Z,0.85
2019-04-26T14:26:16.680Z,0.65
2019-04-26T14:28:45.219Z,0.60
2019-04-26T14:31:16.449Z,0.70
2019-04-26T14:33:43.970Z,0.60
2019-04-26T14:36:22.704Z,0.80
2019-04-26T14:38:51.565Z,0.70
2019-04-26T14:41:22.751Z,0.75
2019-04-26T14:43:52.711Z,0.80
2019-04-26T14:49:02.722Z,0.70
2019-04-26T14:51:25.879Z,0.72
2019-04-26T14:53:54.366Z,0.78
2019-04-26T14:56:24.566Z,0.70
2019-04-26T14:58:53.020Z,0.75
2019-04-26T15:01:32.325Z,0.82
2019-04-26T15:04:17.141Z,0.80
2019-04-26T15:06:47.253Z,0.60
2019-04-26T15:09:19.759Z,0.70
2019-04-26T15:11:55.354Z,0.78
2019-04-26T15:14:19.087Z,0.72
2019-04-26T15:16:46.236Z,1.20
2019-04-26T15:19:14.747Z,0.90
2019-04-26T15:21:43.264Z,0.75
2019-04-26T15:24:12.798Z,0.70
2019-04-26T15:26:41.516Z,0.70
2019-04-26T15:29:10.020Z,0.90
2019-04-26T15:31:38.556Z,0.70
2019-04-26T15:34:06.998Z,0.75
2019-04-26T15:36:35.450Z,0.70
2019-04-26T15:39:06.680Z,1.10
2019-04-26T15:41:36.774Z,1.70
2019-04-26T15:44:20.259Z,2.00
2019-04-26T15:46:50.933Z,1.20
2019-04-26T15:49:36.364Z,1.10
2019-04-26T15:52:03.100Z,1.00
2019-04-26T15:54:32.396Z,1.20
2019-04-26T15:57:02.171Z,1.10
2019-04-26T15:59:30.884Z,1.02
2019-04-26T16:01:59.360Z,6.95
2019-04-26T16:04:27.799Z,0.80
2019-04-26T16:06:56.305Z,1.10
2019-04-26T16:09:24.795Z,0.88
2019-04-26T16:11:55.247Z,0.90
2019-04-26T16:14:24.897Z,0.80
2019-04-26T16:16:53.679Z,0.80
2019-04-26T16:19:22.176Z,0.95
2019-04-26T16:21:52.733Z,0.82
2019-04-26T16:24:24.103Z,1.10
2019-04-26T16:26:55.690Z,1.00
2019-04-26T16:29:25.799Z,1.00
2019-04-26T16:32:05.069Z,0.95
2019-04-26T16:34:35.152Z,1.05
2019-04-26T16:37:03.963Z,1.10
2019-04-26T16:39:38.686Z,0.93
2019-04-26T16:42:05.007Z,1.00
2019-04-26T16:44:33.481Z,1.00
2019-04-26T16:47:05.717Z,1.00
2019-04-26T16:49:35.096Z,0.93
2019-04-26T16:52:06.820Z,1.20
2019-04-26T16:54:34.286Z,0.90
2019-04-26T16:57:06.258Z,0.78
2019-04-26T16:59:33.216Z,1.57
2019-04-26T17:02:02.727Z,1.00
2019-04-26T17:04:33.058Z,0.80
2019-04-26T17:07:04.270Z,0.72
2019-04-26T17:09:54.794Z,0.80
2019-04-26T17:12:02.516Z,0.90
2019-04-26T17:14:32.154Z,1.07
2019-04-26T17:17:03.147Z,1.00
2019-04-26T17:19:34.317Z,1.27
2019-04-26T17:22:03.835Z,1.05
2019-04-26T17:24:46.242Z,1.12
2019-04-26T17:27:17.331Z,1.10
2019-04-26T17:29:45.795Z,0.93
2019-04-26T17:32:17.331Z,1.00
2019-04-26T17:34:44.494Z,0.90
2019-04-26T17:37:17.267Z,4.83
2019-04-26T17:39:43.128Z,1.90
2019-04-26T17:42:11.582Z,1.30
2019-04-26T17:44:41.277Z,1.25
2019-04-26T17:47:10.533Z,1.35
2019-04-26T17:49:42.315Z,1.30
2019-04-26T17:52:09.596Z,1.10
2019-04-26T17:54:46.879Z,1.37
2019-04-26T17:57:08.776Z,1.47
2019-04-26T17:59:45.216Z,1.50
2019-04-26T18:02:25.501Z,1.20
2019-04-26T18:04:40.817Z,1.25
2019-04-26T18:07:34.616Z,1.20
2019-04-26T18:09:46.031Z,1.40
2019-04-26T18:12:09.443Z,1.30
2019-04-26T18:14:37.946Z,3.22
2019-04-26T18:17:08.051Z,4.42
2019-04-26T18:19:38.143Z,1.40
2019-04-26T18:22:08.755Z,1.02
2019-04-26T18:24:37.273Z,1.15
2019-04-26T18:27:05.791Z,1.40
2019-04-26T18:29:34.347Z,1.47
2019-04-26T18:32:03.581Z,1.80
2019-04-26T18:34:37.200Z,1.70
2019-04-26T18:37:06.974Z,1.52
2019-04-26T18:39:33.440Z,1.40
2019-04-26T18:42:02.920Z,2.47
2019-04-26T18:44:36.938Z,1.92
2019-04-26T18:47:07.011Z,2.35
2019-04-26T18:49:35.453Z,2.15
2019-04-26T18:52:03.909Z,2.00
2019-04-26T18:54:52.529Z,1.98
2019-04-26T18:57:21.175Z,1.60
2019-04-26T18:59:51.174Z,1.47
2019-04-26T19:02:21.038Z,1.30
2019-04-26T19:04:49.658Z,1.87
2019-04-26T19:07:30.959Z,1.60
2019-04-26T19:09:58.784Z,1.45
2019-04-26T19:12:23.265Z,1.62
2019-04-26T19:15:02.500Z,1.60
2019-04-26T19:17:35.081Z,1.65
2019-04-26T19:20:15.465Z,1.55
2019-04-26T19:22:46.552Z,1.80
2019-04-26T19:25:21.461Z,2.40
2019-04-26T19:27:49.923Z,2.20
2019-04-26T19:30:16.986Z,1.90
2019-04-26T19:32:45.467Z,1.57
2019-04-26T19:35:14.570Z,1.50
2019-04-26T19:37:43.456Z,1.67
2019-04-26T19:40:12.417Z,1.42
2019-04-26T19:42:42.508Z,1.40
2019-04-26T19:45:17.200Z,1.52
2019-04-26T19:47:51.962Z,1.37
2019-04-26T19:50:31.115Z,1.60
2019-04-26T19:53:10.430Z,1.35
2019-04-26T19:55:47.354Z,2.10
2019-04-26T19:58:20.392Z,1.45
2019-04-26T20:00:46.872Z,1.37
2019-04-26T20:03:16.919Z,1.30
2019-04-26T20:05:45.719Z,1.50
2019-04-26T20:08:14.166Z,1.57
2019-04-26T20:10:45.362Z,1.70
2019-04-26T20:13:15.018Z,1.85
2019-04-26T20:15:43.044Z,1.40
2019-04-26T20:18:12.248Z,1.70
2019-04-26T20:20:41.408Z,1.50
2019-04-26T20:23:10.064Z,1.42
2019-04-26T20:25:38.548Z,1.50
2019-04-26T20:28:06.988Z,1.50
2019-04-26T20:30:46.360Z,1.70
2019-04-26T20:33:14.876Z,1.70
2019-04-26T20:35:43.404Z,1.60
2019-04-26T20:38:11.968Z,1.62
2019-04-26T20:40:43.389Z,1.47
2019-04-26T20:43:20.915Z,1.42
2019-04-26T20:45:42.500Z,1.47
2019-04-26T20:48:11.165Z,1.45
2019-04-26T20:50:41.243Z,1.42
2019-04-26T20:53:11.834Z,1.80
2019-04-26T20:55:40.019Z,1.42
2019-04-26T20:58:08.847Z,1.60
2019-04-26T21:00:37.907Z,1.60
2019-04-26T21:03:06.537Z,1.92
2019-04-26T21:05:45.742Z,1.70
2019-04-26T21:08:05.233Z,1.95
2019-04-26T21:10:35.966Z,2.00
2019-04-26T21:13:03.863Z,1.80
2019-04-26T21:15:35.744Z,2.10
2019-04-26T21:18:04.136Z,2.10
2019-04-26T21:20:36.257Z,2.02
2019-04-26T21:23:03.795Z,2.17
2019-04-26T21:25:35.563Z,2.10
2019-04-26T21:28:06.632Z,2.00
2019-04-26T21:30:53.918Z,2.27
2019-04-26T21:33:40.208Z,1.95
2019-04-26T21:36:10.363Z,2.00
2019-04-26T21:38:40.452Z,2.30
2019-04-26T21:41:14.111Z,1.80
2019-04-26T21:43:43.799Z,1.75
2019-04-26T21:46:18.507Z,2.20
2019-04-26T21:48:44.570Z,2.12
2019-04-26T21:51:15.964Z,2.08
2019-04-26T21:53:45.081Z,2.00
2019-04-26T21:56:14.809Z,1.82
2019-04-26T21:58:43.601Z,1.90
2019-04-26T22:01:19.148Z,2.17
2019-04-26T22:03:54.287Z,2.05
2019-04-26T22:06:20.061Z,1.72
2019-04-26T22:08:50.144Z,1.60
2019-04-26T22:11:19.862Z,1.85
2019-04-26T22:13:50.413Z,1.55
2019-04-26T22:16:34.287Z,1.80
2019-04-26T22:19:00.929Z,1.70
2019-04-26T22:21:34.048Z,1.80
2019-04-26T22:24:13.338Z,1.98
2019-04-26T22:26:44.376Z,1.98
2019-04-26T22:29:16.495Z,2.00
2019-04-26T22:31:42.534Z,1.67
2019-04-26T22:34:12.827Z,1.87
2019-04-26T22:36:43.682Z,1.90
2019-04-26T22:39:18.387Z,1.70
2019-04-26T22:41:46.904Z,1.87
2019-04-26T22:44:16.986Z,1.67
2019-04-26T22:46:49.837Z,1.72
2019-04-26T22:49:18.653Z,2.12
2019-04-26T22:51:47.104Z,1.52
2019-04-26T22:54:15.573Z,1.87
2019-04-26T22:56:45.985Z,1.72
2019-04-26T22:59:14.249Z,1.87
2019-04-26T23:01:44.609Z,1.90
2019-04-26T23:04:16.168Z,1.62
2019-04-26T23:06:46.907Z,1.95
2019-04-26T23:09:16.943Z,1.62
2019-04-26T23:11:46.778Z,1.70
2019-04-26T23:14:25.822Z,1.90
2019-04-26T23:17:14.025Z,1.75
2019-04-26T23:19:55.248Z,1.77
2019-04-26T23:22:26.365Z,2.02
2019-04-26T23:24:58.166Z,1.80
2019-04-26T23:27:26.881Z,1.90
2019-04-26T23:29:58.292Z,1.80
2019-04-26T23:32:25.583Z,1.90
2019-04-26T23:34:54.106Z,1.95
2019-04-26T23:37:24.256Z,1.82
2019-04-26T23:39:53.646Z,1.90
2019-04-26T23:42:23.285Z,1.90
2019-04-26T23:44:52.456Z,1.92
2019-04-26T23:47:23.299Z,2.17
2019-04-26T23:49:53.935Z,2.00
2019-04-26T23:52:23.041Z,2.05
2019-04-26T23:54:53.000Z,2.45
2019-04-26T23:57:21.572Z,2.12
2019-04-26T23:59:51.156Z,2.50
